createdAt,value
2018-10-19T00:03:06.131Z,63.98
2018-10-19T00:08:09.591Z,64.28
2018-10-19T00:13:13.188Z,63.97
2018-10-19T00:18:16.639Z,64.19
2018-10-19T00:23:20.151Z,63.99
2018-10-19T00:28:23.693Z,64.76
2018-10-19T00:33:27.169Z,64.41
2018-10-19T00:38:30.649Z,64.52
2018-10-19T00:43:34.164Z,64.77
2018-10-19T00:48:37.666Z,64.32
2018-10-19T00:53:41.184Z,65.13
2018-10-19T00:58:44.700Z,65.24
2018-10-19T01:03:48.257Z,65.52
2018-10-19T01:08:51.765Z,65.19
2018-10-19T01:13:55.243Z,65.52
2018-10-19T01:18:58.792Z,65.50
2018-10-19T01:24:02.295Z,65.73
2018-10-19T01:29:05.975Z,65.76
2018-10-19T01:34:09.431Z,65.77
2018-10-19T01:39:13.552Z,65.85
2018-10-19T01:44:17.102Z,65.76
2018-10-19T01:49:21.123Z,66.07
2018-10-19T01:54:24.608Z,66.31
2018-10-19T01:59:28.156Z,66.28
2018-10-19T02:04:31.657Z,65.89
2018-10-19T02:09:35.258Z,66.57
2018-10-19T02:14:39.198Z,66.38
2018-10-19T02:19:42.697Z,66.46
2018-10-19T02:24:46.200Z,66.69
2018-10-19T02:29:49.667Z,66.47
2018-10-19T02:34:53.157Z,66.66
2018-10-19T02:39:56.644Z,66.58
2018-10-19T02:45:00.323Z,66.62
2018-10-19T02:50:04.221Z,66.77
2018-10-19T02:55:08.604Z,66.82
2018-10-19T03:00:12.911Z,67.04
2018-10-19T03:05:16.537Z,67.09
2018-10-19T03:10:19.944Z,66.76
2018-10-19T03:15:23.473Z,66.90
2018-10-19T03:20:27.007Z,67.40
2018-10-19T03:25:30.583Z,66.87
2018-10-19T03:30:34.127Z,67.44
2018-10-19T03:35:37.643Z,67.48
2018-10-19T03:40:41.176Z,66.98
2018-10-19T03:45:44.699Z,67.01
2018-10-19T03:50:48.223Z,66.95
2018-10-19T03:55:52.513Z,66.82
2018-10-19T04:00:56.000Z,67.11
2018-10-19T04:05:59.569Z,67.08
2018-10-19T04:11:03.131Z,67.27
2018-10-19T04:16:06.776Z,67.41
2018-10-19T04:21:10.402Z,67.09
2018-10-19T04:26:13.962Z,66.63
2018-10-19T04:31:17.505Z,67.15
2018-10-19T04:36:20.987Z,66.92
2018-10-19T04:41:24.720Z,66.86
2018-10-19T04:46:28.211Z,66.94
2018-10-19T04:51:31.759Z,66.73
2018-10-19T04:56:35.256Z,66.08
2018-10-19T05:01:38.707Z,66.50
2018-10-19T05:06:42.290Z,66.55
2018-10-19T05:11:45.772Z,66.31
2018-10-19T05:16:49.283Z,66.61
2018-10-19T05:21:52.722Z,66.17
2018-10-19T05:26:56.195Z,66.61
2018-10-19T05:31:59.671Z,66.49
2018-10-19T05:37:03.147Z,66.39
2018-10-19T05:42:07.716Z,66.30
2018-10-19T05:47:11.215Z,65.82
2018-10-19T05:52:14.946Z,65.95
2018-10-19T05:57:18.443Z,65.65
2018-10-19T06:02:22.082Z,65.79
2018-10-19T06:07:25.428Z,65.53
2018-10-19T06:12:28.915Z,65.48
2018-10-19T06:17:32.766Z,65.44
2018-10-19T06:22:37.084Z,65.34
2018-10-19T06:27:40.584Z,65.56
2018-10-19T06:32:44.156Z,64.83
2018-10-19T06:37:47.775Z,64.91
2018-10-19T06:42:51.309Z,65.12
2018-10-19T06:47:54.987Z,64.68
2018-10-19T06:52:58.489Z,64.83
2018-10-19T06:58:02.068Z,64.27
2018-10-19T07:03:06.323Z,64.34
2018-10-19T07:08:09.923Z,64.02
2018-10-19T07:13:13.402Z,63.93
2018-10-19T07:18:16.903Z,59.35
2018-10-19T07:23:20.355Z,63.98
2018-10-19T07:28:23.831Z,65.13
2018-10-19T07:33:27.262Z,66.14
2018-10-19T07:38:30.735Z,66.15
2018-10-19T07:43:34.182Z,64.96
2018-10-19T07:48:37.685Z,65.78
2018-10-19T07:53:41.114Z,65.84
2018-10-19T07:58:44.567Z,65.52
2018-10-19T08:03:48.186Z,63.84
2018-10-19T08:08:51.714Z,61.82
2018-10-19T08:13:55.203Z,59.99
2018-10-19T08:18:58.638Z,59.94
2018-10-19T08:24:02.095Z,59.79
2018-10-19T08:29:05.946Z,60.17
2018-10-19T08:34:09.381Z,60.09
2018-10-19T08:39:12.889Z,60.46
2018-10-19T08:44:16.379Z,60.38
2018-10-19T08:49:19.904Z,60.46
2018-10-19T08:54:24.368Z,60.67
2018-10-19T08:59:27.866Z,60.34
2018-10-19T09:04:31.394Z,60.71
2018-10-19T09:09:35.113Z,60.49
2018-10-19T09:14:57.735Z,60.48
2018-10-19T09:20:01.229Z,60.78
2018-10-19T09:25:05.007Z,60.76
2018-10-19T09:30:08.760Z,60.69
2018-10-19T09:35:12.734Z,61.36
2018-10-19T09:40:16.585Z,61.48
2018-10-19T09:45:20.129Z,61.62
2018-10-19T09:50:23.852Z,61.82
2018-10-19T09:55:28.087Z,61.90
2018-10-19T10:00:37.064Z,61.35
2018-10-19T10:05:40.740Z,61.55
2018-10-19T10:10:45.181Z,61.90
2018-10-19T10:15:48.936Z,61.41
2018-10-19T10:20:53.955Z,61.67
2018-10-19T10:25:57.503Z,61.70
2018-10-19T10:31:01.177Z,61.72
2018-10-19T10:36:05.603Z,61.37
2018-10-19T10:41:09.787Z,61.72
2018-10-19T10:46:13.263Z,61.94
2018-10-19T10:51:16.709Z,63.11
2018-10-19T10:56:20.171Z,63.85
2018-10-19T11:01:23.685Z,64.68
2018-10-19T11:06:27.139Z,64.55
2018-10-19T11:11:30.588Z,64.29
2018-10-19T11:16:34.051Z,62.85
2018-10-19T11:21:37.509Z,63.48
2018-10-19T11:26:41.022Z,63.90
2018-10-19T11:31:44.519Z,62.35
2018-10-19T11:36:48.028Z,61.92
2018-10-19T11:41:51.496Z,61.61
2018-10-19T11:46:58.319Z,61.50
2018-10-19T11:52:02.038Z,61.34
2018-10-19T11:57:05.948Z,61.60
2018-10-19T12:02:10.341Z,61.54
2018-10-19T12:07:14.027Z,61.45
2018-10-19T12:12:17.559Z,61.56
2018-10-19T12:17:21.098Z,61.65
2018-10-19T12:22:24.571Z,61.31
2018-10-19T12:27:28.124Z,61.69
2018-10-19T12:32:31.625Z,61.78
2018-10-19T12:37:35.266Z,61.68
2018-10-19T12:42:39.090Z,61.01
2018-10-19T12:47:43.828Z,61.32
2018-10-19T12:52:47.304Z,60.98
2018-10-19T12:57:50.801Z,60.96
2018-10-19T13:02:54.426Z,61.69
2018-10-19T13:07:57.904Z,61.20
2018-10-19T13:13:01.477Z,61.04
2018-10-19T13:18:05.002Z,60.97
2018-10-19T13:23:08.538Z,61.43
2018-10-19T13:28:12.110Z,60.20
2018-10-19T13:33:15.793Z,61.23
2018-10-19T13:38:19.858Z,60.59
2018-10-19T13:43:23.635Z,61.01
2018-10-19T13:48:27.177Z,60.74
2018-10-19T13:53:30.673Z,60.41
2018-10-19T13:58:34.178Z,60.60
2018-10-19T14:03:37.611Z,60.48
2018-10-19T14:08:41.104Z,60.71
2018-10-19T14:13:45.706Z,61.35
2018-10-19T14:18:49.188Z,61.58
2018-10-19T14:23:52.639Z,61.34
2018-10-19T14:28:56.132Z,61.28
2018-10-19T14:33:59.531Z,61.09
2018-10-19T14:39:03.031Z,61.23
2018-10-19T14:44:06.488Z,60.09
2018-10-19T14:49:10.024Z,60.37
2018-10-19T14:54:13.539Z,60.49
2018-10-19T14:59:17.228Z,60.71
2018-10-19T15:04:20.577Z,60.50
2018-10-19T15:09:24.141Z,60.71
2018-10-19T15:14:27.476Z,60.68
2018-10-19T15:19:31.026Z,60.20
2018-10-19T15:24:34.497Z,60.33
2018-10-19T15:29:38.104Z,60.83
2018-10-19T15:34:41.530Z,60.33
2018-10-19T15:39:44.999Z,60.53
2018-10-19T15:44:48.467Z,60.84
2018-10-19T15:49:51.929Z,60.43
2018-10-19T15:54:55.487Z,60.82
2018-10-19T15:59:59.292Z,60.37
2018-10-19T16:05:02.944Z,60.39
2018-10-19T16:10:07.165Z,60.86
2018-10-19T16:15:11.194Z,60.57
2018-10-19T16:20:15.094Z,60.57
2018-10-19T16:25:18.627Z,60.91
2018-10-19T16:30:22.667Z,60.18
2018-10-19T16:35:26.594Z,60.52
2018-10-19T16:40:30.093Z,60.19
2018-10-19T16:45:33.539Z,60.71
2018-10-19T16:50:37.070Z,60.64
2018-10-19T16:55:40.519Z,60.88
2018-10-19T17:00:43.986Z,60.59
2018-10-19T17:05:47.417Z,60.82
2018-10-19T17:10:50.932Z,60.83
2018-10-19T17:15:54.388Z,61.21
2018-10-19T17:20:57.874Z,61.14
2018-10-19T17:26:01.416Z,61.21
2018-10-19T17:31:05.435Z,60.82
2018-10-19T17:36:09.009Z,61.38
2018-10-19T17:41:12.638Z,61.12
2018-10-19T17:46:16.291Z,61.67
2018-10-19T17:51:19.785Z,61.66
2018-10-19T17:56:23.394Z,61.31
2018-10-19T18:01:26.900Z,60.99
2018-10-19T18:06:30.411Z,60.88
2018-10-19T18:11:34.068Z,60.70
2018-10-19T18:16:37.632Z,61.26
2018-10-19T18:21:41.251Z,61.45
2018-10-19T18:26:44.698Z,61.08
2018-10-19T18:31:48.185Z,60.74
2018-10-19T18:36:51.867Z,60.69
2018-10-19T18:41:55.401Z,60.84
2018-10-19T18:46:58.890Z,61.05
2018-10-19T18:52:02.381Z,60.83
2018-10-19T18:57:05.885Z,60.79
2018-10-19T19:02:09.443Z,60.52
2018-10-19T19:07:12.846Z,60.94
2018-10-19T19:12:16.378Z,60.95
2018-10-19T19:17:19.869Z,60.78
2018-10-19T19:22:23.417Z,60.36
2018-10-19T19:27:27.038Z,60.51
2018-10-19T19:32:30.743Z,60.32
2018-10-19T19:37:34.303Z,60.62
2018-10-19T19:42:46.070Z,60.81
2018-10-19T19:47:54.785Z,60.54
2018-10-19T19:52:58.260Z,60.82
2018-10-19T19:58:01.917Z,60.49
2018-10-19T20:03:05.526Z,60.85
2018-10-19T20:08:09.112Z,60.52
2018-10-19T20:13:12.502Z,60.57
2018-10-19T20:18:16.222Z,61.03
2018-10-19T20:23:19.698Z,60.76
2018-10-19T20:28:23.194Z,60.95
2018-10-19T20:33:26.988Z,61.06
2018-10-19T20:38:30.685Z,60.92
2018-10-19T20:43:34.193Z,61.22
2018-10-19T20:48:37.717Z,61.08
2018-10-19T20:53:41.202Z,61.38
2018-10-19T20:58:44.635Z,61.39
2018-10-19T21:03:48.166Z,60.79
2018-10-19T21:08:51.564Z,60.99
2018-10-19T21:13:55.190Z,60.91
2018-10-19T21:18:58.674Z,60.91
2018-10-19T21:24:02.106Z,60.86
2018-10-19T21:29:05.938Z,60.87
2018-10-19T21:34:09.458Z,60.76
2018-10-19T21:39:13.319Z,61.45
2018-10-19T21:44:17.002Z,61.02
2018-10-19T21:49:20.613Z,61.21
2018-10-19T21:54:24.173Z,61.18
2018-10-19T21:59:27.683Z,61.33
2018-10-19T22:04:31.257Z,61.17
2018-10-19T22:09:34.823Z,61.59
2018-10-19T22:14:39.804Z,61.21
2018-10-19T22:19:43.246Z,61.38
2018-10-19T22:24:46.820Z,61.23
2018-10-19T22:29:50.263Z,61.27
2018-10-19T22:34:53.785Z,61.42
2018-10-19T22:39:57.293Z,61.48
2018-10-19T22:45:00.726Z,60.94
2018-10-19T22:50:04.374Z,61.32
2018-10-19T22:55:07.914Z,61.45
2018-10-19T23:00:11.370Z,62.00
2018-10-19T23:05:14.865Z,61.59
2018-10-19T23:10:18.355Z,62.22
2018-10-19T23:15:26.237Z,62.15
2018-10-19T23:20:29.702Z,61.97
2018-10-19T23:25:33.175Z,62.12
2018-10-19T23:30:36.703Z,62.53
2018-10-19T23:35:40.492Z,62.70
2018-10-19T23:40:45.036Z,62.59
2018-10-19T23:45:48.960Z,62.80
2018-10-19T23:50:52.710Z,62.97
2018-10-19T23:55:56.292Z,62.95
